Randolph, Maine
Current Conditions -  °F | °C
As of 5:53 AM on Saturday 22 Nov 2014 (Local Time) from KAUG Reporting Station
Broken Clouds Broken Clouds  
Wind Chill: 21°   Ceiling: 12000
Heat Index: 21°   Visibility: 10mi
Dew Point:   Wind: 3mph
Humidity: 57%   Direction: NA
Pressure: 30.29"   Gusts: NA
Location:  44.23°N, 69.75°W
Report Text: KAUG 221053Z AUTO VRB03KT 10SM BKN120 M06/M13 A3029 RMK AO2 SLP265 T10611133
Loading
Personal Weather Stations






























Interactive Weather Map New forecast layout! Learn more

10-Day Weather Forecast

Advertisements
Track Severe Weather on mobile